Weather at Dane County Regional Truax Field

Public forecast

Using degrees Fahrenheit for public forecast. Weather courtesy of forecast.io.

Current aviation weather report (METAR) for Dane County Regional Truax Field

Retrieved 2021/12/05 01:53 UTC (28 minutes ago):

KMSN 050153Z 00000KT 10SM OVC110 M01/M07 A3028 RMK AO2 SLP264 T10061072

Aviation forecast (TAF) for Dane County Regional Truax Field

Retrieved 2021-12-05 00:22 UTC (2 hours ago):

TAF KMSN 042320Z 0500/0524 VRB03KT P6SM BKN100 FM050900 12007KT P6SM OVC120 FM051400 15015G27KT 5SM -SN OVC050 FM051700 17013G24KT 5SM -FZRA BR OVC020 FM052000 18010G18KT 4SM -RA OVC009